Time;durP1;ratioP1;P1;durP2;ratioP2;P2;SDS_P1;SDS_P2;PMS_P1;PMS_P2;Temp;Humidity;BMP_temperature;BMP_pressure;BME280_temperature;BME280_humidity;BME280_pressure;Samples;Min_cycle;Max_cycle;Signal;HPM_P1;HPM_P2
2023/05/12 00:02:12;;;;;;;1.95;1.85;;;18.20;65.00;;;;;;5114024;28;20224;-61
2023/05/12 00:04:39;;;;;;;1.80;1.70;;;18.20;65.00;;;;;;5114044;28;20218;-62
2023/05/12 00:07:05;;;;;;;1.88;1.77;;;18.20;65.00;;;;;;5114207;28;20542;-61
2023/05/12 00:09:31;;;;;;;1.83;1.73;;;18.20;65.00;;;;;;5114099;28;20252;-60
2023/05/12 00:11:57;;;;;;;1.85;1.75;;;18.20;65.00;;;;;;5113613;28;20204;-60
2023/05/12 00:14:22;;;;;;;1.67;1.52;;;18.20;65.00;;;;;;5112624;28;20505;-60
2023/05/12 00:16:50;;;;;;;1.50;1.40;;;18.20;65.00;;;;;;5113800;28;20651;-60
2023/05/12 00:19:17;;;;;;;1.70;1.60;;;18.20;64.90;;;;;;5112959;28;20619;-60
2023/05/12 00:21:42;;;;;;;2.00;1.80;;;18.20;65.00;;;;;;5114175;28;20212;-60
2023/05/12 00:24:08;;;;;;;2.00;1.35;;;18.20;65.00;;;;;;5113659;28;20271;-60
2023/05/12 00:26:33;;;;;;;1.77;1.67;;;18.20;65.00;;;;;;5113313;28;20644;-60
2023/05/12 00:28:59;;;;;;;1.77;1.67;;;18.10;64.90;;;;;;5114080;28;20173;-61
2023/05/12 00:31:25;;;;;;;1.63;1.52;;;18.20;65.00;;;;;;5113452;28;20173;-61
2023/05/12 00:33:51;;;;;;;1.88;1.77;;;18.10;64.90;;;;;;5113072;28;20188;-61
2023/05/12 00:36:16;;;;;;;1.60;1.50;;;18.10;65.00;;;;;;5113434;28;20248;-61
2023/05/12 00:38:42;;;;;;;1.45;1.35;;;18.20;65.00;;;;;;5112929;28;20264;-60
2023/05/12 00:41:07;;;;;;;1.65;1.55;;;18.20;65.00;;;;;;5112680;28;20570;-60
2023/05/12 00:43:33;;;;;;;1.63;1.52;;;18.10;64.90;;;;;;5113550;28;20711;-60
2023/05/12 00:45:59;;;;;;;1.83;1.73;;;18.10;64.90;;;;;;5113557;28;20252;-61
2023/05/12 00:48:25;;;;;;;1.92;1.83;;;18.10;64.90;;;;;;5112561;28;20181;-60
2023/05/12 00:50:50;;;;;;;1.65;1.55;;;18.10;64.90;;;;;;5112488;28;20306;-61
2023/05/12 00:53:16;;;;;;;1.80;1.70;;;18.20;64.90;;;;;;5113168;28;20223;-60
2023/05/12 00:55:41;;;;;;;1.70;1.60;;;18.10;64.90;;;;;;5112834;28;20203;-60
2023/05/12 00:58:07;;;;;;;1.55;1.45;;;18.10;64.90;;;;;;5111856;28;20689;-61
2023/05/12 01:00:32;;;;;;;1.77;1.67;;;18.10;64.90;;;;;;5113441;28;20212;-60
2023/05/12 01:02:58;;;;;;;1.65;1.55;;;18.10;64.90;;;;;;5112599;28;20170;-60
2023/05/12 01:05:25;;;;;;;1.75;1.65;;;18.10;64.90;;;;;;5112889;28;20173;-61
2023/05/12 01:07:50;;;;;;;1.60;1.50;;;18.10;64.90;;;;;;5111830;28;20211;-60
2023/05/12 01:10:20;;;;;;;2.08;1.60;;;18.10;64.90;;;;;;5112399;28;20165;-60
2023/05/12 01:12:45;;;;;;;1.60;1.50;;;18.10;64.90;;;;;;5113088;28;20274;-60
2023/05/12 01:15:11;;;;;;;1.40;1.30;;;18.00;64.90;;;;;;5112191;28;20621;-59
2023/05/12 01:17:37;;;;;;;1.40;1.30;;;18.10;64.90;;;;;;5113182;28;20205;-60
2023/05/12 01:20:03;;;;;;;1.15;1.10;;;18.10;64.90;;;;;;5111871;28;20205;-60
2023/05/12 01:22:30;;;;;;;1.80;1.70;;;18.10;64.90;;;;;;5110607;28;20230;-61
2023/05/12 01:25:03;;;;;;;1.23;1.17;;;18.10;64.90;;;;;;5112101;28;20194;-60
2023/05/12 01:27:29;;;;;;;1.40;1.30;;;18.10;64.90;;;;;;5112822;28;20213;-60
2023/05/12 01:29:56;;;;;;;1.50;1.40;;;18.10;64.90;;;;;;5112411;28;20218;-61
2023/05/12 01:32:22;;;;;;;1.45;1.35;;;18.10;64.90;;;;;;5112761;28;20684;-61
2023/05/12 01:34:49;;;;;;;1.60;1.50;;;18.10;64.90;;;;;;5112815;28;20173;-61
2023/05/12 01:37:14;;;;;;;1.30;1.20;;;18.10;64.90;;;;;;5111745;28;20550;-60
2023/05/12 01:39:40;;;;;;;1.40;1.30;;;18.00;64.90;;;;;;5113086;28;20169;-61
2023/05/12 01:42:05;;;;;;;1.25;1.15;;;18.00;64.90;;;;;;5112613;28;20173;-60
2023/05/12 01:44:31;;;;;;;1.30;1.20;;;18.10;65.00;;;;;;5112125;28;20570;-60
2023/05/12 01:46:56;;;;;;;1.48;1.38;;;18.00;64.90;;;;;;5112762;28;20226;-60
2023/05/12 01:49:22;;;;;;;1.02;1.02;;;18.10;64.90;;;;;;5113798;28;20172;-60
2023/05/12 01:51:48;;;;;;;1.35;1.25;;;18.00;64.90;;;;;;5116651;28;20198;-60
2023/05/12 01:54:13;;;;;;;1.08;1.08;;;18.00;64.90;;;;;;5116933;28;20248;-60
2023/05/12 01:56:39;;;;;;;1.23;1.20;;;18.00;64.90;;;;;;5117029;28;20632;-60
2023/05/12 01:59:05;;;;;;;1.30;1.20;;;18.00;64.90;;;;;;5116067;28;20161;-60
2023/05/12 02:01:31;;;;;;;1.48;1.38;;;18.00;64.80;;;;;;5116890;28;20169;-61
2023/05/12 02:03:57;;;;;;;1.30;1.20;;;18.00;64.90;;;;;;5116563;28;20180;-61
2023/05/12 02:06:23;;;;;;;1.35;1.25;;;18.10;64.90;;;;;;5115536;28;20201;-61
2023/05/12 02:08:49;;;;;;;1.55;1.45;;;18.00;64.80;;;;;;5116781;28;20195;-60
2023/05/12 02:11:14;;;;;;;1.20;1.10;;;18.00;64.90;;;;;;5115924;28;20165;-60
2023/05/12 02:13:40;;;;;;;1.13;1.05;;;18.00;64.80;;;;;;5116439;28;20169;-60
2023/05/12 02:16:06;;;;;;;1.48;1.38;;;18.00;64.80;;;;;;5116351;28;20177;-60
2023/05/12 02:18:32;;;;;;;1.10;1.10;;;18.10;64.90;;;;;;5115689;28;20640;-60
2023/05/12 02:20:57;;;;;;;1.10;1.10;;;18.00;64.80;;;;;;5116371;28;20227;-60
2023/05/12 02:23:23;;;;;;;1.35;1.25;;;18.00;64.80;;;;;;5115995;28;20224;-60
2023/05/12 02:25:48;;;;;;;1.10;1.10;;;18.00;64.90;;;;;;5115641;28;20173;-60
2023/05/12 02:28:14;;;;;;;1.63;1.52;;;18.00;64.90;;;;;;5116159;28;20678;-61
2023/05/12 02:30:44;;;;;;;1.15;1.10;;;18.00;64.90;;;;;;5116359;28;20177;-61
2023/05/12 02:33:10;;;;;;;1.20;1.10;;;18.00;64.80;;;;;;5115265;28;20181;-61
2023/05/12 02:35:35;;;;;;;1.08;1.08;;;18.00;64.80;;;;;;5116385;28;20176;-60
2023/05/12 02:38:01;;;;;;;1.50;1.40;;;18.00;64.80;;;;;;5116347;28;20169;-60
2023/05/12 02:40:26;;;;;;;1.40;1.30;;;18.00;64.90;;;;;;5115053;28;20169;-60
2023/05/12 02:42:52;;;;;;;1.08;1.08;;;18.00;64.90;;;;;;5116345;28;20181;-60
2023/05/12 02:45:18;;;;;;;1.30;1.20;;;18.00;64.90;;;;;;5115901;28;20173;-60
2023/05/12 02:47:43;;;;;;;1.40;1.30;;;18.00;64.80;;;;;;5115333;28;20245;-60
2023/05/12 02:50:09;;;;;;;1.30;1.20;;;18.00;64.80;;;;;;5116119;28;20214;-60
2023/05/12 02:52:34;;;;;;;1.50;1.40;;;18.00;64.80;;;;;;5116327;28;20168;-60
2023/05/12 02:55:00;;;;;;;1.40;1.30;;;18.00;64.80;;;;;;5115237;28;20734;-61
2023/05/12 02:57:31;;;;;;;1.65;1.55;;;18.00;64.90;;;;;;5115936;28;20187;-60
2023/05/12 02:59:57;;;;;;;1.52;1.42;;;18.00;64.90;;;;;;5116009;28;20196;-61
2023/05/12 03:02:22;;;;;;;1.63;1.52;;;17.90;64.80;;;;;;5113887;28;20212;-60
2023/05/12 03:04:48;;;;;;;1.52;1.42;;;17.90;64.80;;;;;;5115981;28;20173;-61
2023/05/12 03:07:13;;;;;;;1.40;1.30;;;18.00;64.90;;;;;;5115279;28;20209;-60
2023/05/12 03:09:39;;;;;;;1.63;1.27;;;17.90;64.80;;;;;;5114817;28;20177;-60
2023/05/12 03:12:05;;;;;;;1.70;1.60;;;18.00;64.90;;;;;;5115409;28;20208;-60
2023/05/12 03:14:30;;;;;;;1.50;1.40;;;18.00;64.90;;;;;;5115237;28;20260;-60
2023/05/12 03:16:56;;;;;;;1.67;1.58;;;18.00;64.90;;;;;;5115158;28;20628;-60
2023/05/12 03:19:21;;;;;;;1.73;1.60;;;17.90;64.80;;;;;;5115372;28;20269;-60
2023/05/12 03:21:47;;;;;;;1.40;1.30;;;17.90;64.90;;;;;;5114641;28;20636;-60
2023/05/12 03:24:12;;;;;;;1.65;1.42;;;17.90;64.80;;;;;;5115054;28;20285;-60
2023/05/12 03:26:38;;;;;;;1.70;1.60;;;18.00;64.90;;;;;;5114075;28;20367;-60
2023/05/12 03:29:03;;;;;;;1.58;1.48;;;17.90;64.90;;;;;;5114601;28;20173;-61
2023/05/12 03:31:29;;;;;;;1.77;1.67;;;18.00;64.90;;;;;;5115083;28;20169;-61
2023/05/12 03:33:54;;;;;;;1.58;1.48;;;18.00;65.00;;;;;;5115434;28;20169;-61
2023/05/12 03:36:20;;;;;;;1.52;1.42;;;18.00;64.90;;;;;;5114672;28;20229;-61
2023/05/12 03:38:45;;;;;;;1.80;1.70;;;17.90;64.90;;;;;;5115003;28;20234;-60
2023/05/12 03:41:11;;;;;;;1.60;1.50;;;17.90;64.90;;;;;;5114796;28;20172;-60
2023/05/12 03:43:36;;;;;;;2.10;1.90;;;17.90;64.90;;;;;;5114307;28;20173;-60
2023/05/12 03:46:02;;;;;;;1.77;1.67;;;17.90;64.90;;;;;;5114867;28;20180;-60
2023/05/12 03:48:28;;;;;;;1.70;1.60;;;17.90;65.00;;;;;;5114918;28;20224;-61
2023/05/12 03:50:53;;;;;;;1.67;1.58;;;17.90;64.90;;;;;;5114409;28;20176;-60
2023/05/12 03:53:19;;;;;;;1.70;1.60;;;17.90;64.90;;;;;;5114807;28;20189;-60
2023/05/12 03:55:45;;;;;;;1.90;1.80;;;17.90;65.30;;;;;;5114886;28;20184;-61
2023/05/12 03:58:10;;;;;;;1.88;1.75;;;17.90;64.90;;;;;;5113671;28;20656;-60
2023/05/12 04:00:36;;;;;;;1.60;1.50;;;17.90;64.90;;;;;;5114526;28;20650;-61
2023/05/12 04:03:01;;;;;;;1.67;1.58;;;17.90;64.90;;;;;;5114382;28;20184;-60
2023/05/12 04:05:27;;;;;;;1.88;1.77;;;17.90;64.90;;;;;;5113714;28;20177;-61
2023/05/12 04:07:52;;;;;;;2.17;1.95;;;17.90;65.00;;;;;;5114482;28;20209;-61
2023/05/12 04:10:18;;;;;;;2.05;1.85;;;17.90;64.90;;;;;;5114214;28;20165;-60
2023/05/12 04:12:43;;;;;;;2.28;2.10;;;17.90;64.90;;;;;;5112683;28;20169;-60
2023/05/12 04:15:09;;;;;;;2.10;2.00;;;17.90;64.90;;;;;;5113956;28;20566;-60
2023/05/12 04:17:34;;;;;;;2.47;2.28;;;17.90;64.90;;;;;;5114353;28;20180;-60
2023/05/12 04:20:00;;;;;;;1.98;1.88;;;17.80;64.80;;;;;;5113531;28;20520;-59
2023/05/12 04:22:26;;;;;;;2.45;2.25;;;17.90;64.90;;;;;;5113479;28;20225;-60
2023/05/12 04:24:51;;;;;;;2.45;2.17;;;17.90;64.90;;;;;;5113663;28;20176;-60
2023/05/12 04:27:17;;;;;;;2.08;1.90;;;17.90;65.00;;;;;;5113369;28;20242;-60
2023/05/12 04:29:42;;;;;;;2.50;2.30;;;18.00;65.00;;;;;;5113806;28;20177;-62
2023/05/12 04:32:08;;;;;;;2.55;2.35;;;17.90;64.90;;;;;;5112630;28;20165;-61
2023/05/12 04:34:33;;;;;;;1.90;1.80;;;17.90;64.90;;;;;;5113739;28;20264;-61
2023/05/12 04:36:59;;;;;;;3.22;2.92;;;17.90;64.90;;;;;;5113631;28;20268;-60
2023/05/12 04:39:24;;;;;;;2.58;2.38;;;17.90;64.90;;;;;;5112655;28;20226;-60
2023/05/12 04:41:50;;;;;;;2.60;2.40;;;17.90;64.90;;;;;;5113651;28;20173;-60
2023/05/12 04:44:15;;;;;;;3.60;2.53;;;17.90;64.90;;;;;;5113308;28;20173;-60
2023/05/12 04:46:42;;;;;;;2.55;2.35;;;17.90;65.00;;;;;;5112666;28;20204;-60
2023/05/12 04:49:07;;;;;;;2.30;2.10;;;17.90;64.90;;;;;;5113535;28;20177;-60
2023/05/12 04:51:33;;;;;;;2.30;2.10;;;17.90;64.90;;;;;;5113866;28;20165;-61
2023/05/12 04:53:58;;;;;;;2.45;2.25;;;17.90;64.90;;;;;;5113037;28;20242;-60
2023/05/12 04:56:24;;;;;;;2.70;2.50;;;17.90;64.90;;;;;;5113384;28;20173;-60
2023/05/12 04:58:49;;;;;;;2.50;2.30;;;17.90;64.90;;;;;;5113488;28;20177;-60
2023/05/12 05:01:15;;;;;;;2.88;2.67;;;17.90;64.90;;;;;;5112371;28;20169;-60
2023/05/12 05:03:41;;;;;;;3.13;2.80;;;17.90;64.90;;;;;;5113456;28;20180;-61
2023/05/12 05:06:06;;;;;;;2.70;2.50;;;18.00;64.90;;;;;;5112846;28;20538;-61
2023/05/12 05:08:32;;;;;;;2.70;2.50;;;17.90;64.90;;;;;;5112415;28;20220;-60
2023/05/12 05:10:57;;;;;;;2.70;2.50;;;18.00;64.90;;;;;;5113245;28;20169;-60
2023/05/12 05:13:23;;;;;;;2.95;2.65;;;17.90;64.80;;;;;;5112777;28;20188;-59
2023/05/12 05:15:52;;;;;;;2.90;2.70;;;17.90;64.80;;;;;;5112436;28;20169;-60
2023/05/12 05:18:17;;;;;;;2.90;2.60;;;17.90;64.80;;;;;;5112944;28;20218;-60
2023/05/12 05:20:44;;;;;;;3.17;2.95;;;17.90;64.80;;;;;;5094998;28;20256;-60
2023/05/12 05:23:10;;;;;;;2.88;2.67;;;17.90;64.80;;;;;;5111947;28;20228;-60
2023/05/12 05:25:35;;;;;;;2.92;2.67;;;17.90;64.80;;;;;;5112802;28;20220;-61
2023/05/12 05:28:01;;;;;;;2.85;2.65;;;18.00;64.90;;;;;;5112654;28;20200;-60
2023/05/12 05:30:27;;;;;;;2.97;2.78;;;18.00;64.80;;;;;;5111995;28;20169;-62
2023/05/12 05:32:52;;;;;;;2.85;2.65;;;18.00;64.80;;;;;;5113448;28;20311;-61
2023/05/12 05:35:18;;;;;;;2.78;2.53;;;18.00;64.80;;;;;;5112052;28;20256;-61
2023/05/12 05:37:43;;;;;;;3.20;2.97;;;18.00;64.80;;;;;;5113347;28;20180;-60
2023/05/12 05:40:09;;;;;;;3.05;2.75;;;18.00;64.80;;;;;;5112579;28;20628;-61
2023/05/12 05:42:35;;;;;;;3.15;2.85;;;18.00;64.80;;;;;;5112218;28;20714;-60
2023/05/12 05:45:00;;;;;;;3.33;3.05;;;18.00;64.80;;;;;;5113055;28;20173;-61
2023/05/12 05:47:27;;;;;;;2.85;2.65;;;18.00;64.80;;;;;;5112736;28;20212;-60
2023/05/12 05:49:52;;;;;;;2.80;2.60;;;18.00;65.30;;;;;;5112471;28;20341;-61
2023/05/12 05:52:18;;;;;;;2.92;2.72;;;18.00;64.90;;;;;;5112800;28;20173;-60
2023/05/12 05:54:44;;;;;;;2.55;2.35;;;18.00;64.90;;;;;;5112834;28;20188;-60
2023/05/12 05:57:09;;;;;;;2.83;2.63;;;18.00;64.90;;;;;;5111767;28;20187;-60
2023/05/12 05:59:35;;;;;;;3.00;2.80;;;18.00;64.90;;;;;;5112692;28;20184;-60
2023/05/12 06:02:01;;;;;;;3.10;2.80;;;18.00;65.00;;;;;;5112588;28;20184;-61
2023/05/12 06:04:26;;;;;;;3.10;2.90;;;18.00;64.90;;;;;;5111823;28;20209;-61
2023/05/12 06:06:52;;;;;;;3.30;3.00;;;18.00;65.00;;;;;;5112677;28;20197;-60
2023/05/12 06:09:17;;;;;;;2.97;2.78;;;18.00;65.00;;;;;;5112458;28;20173;-60
2023/05/12 06:11:43;;;;;;;2.88;2.67;;;18.00;65.00;;;;;;5111871;28;20211;-60
2023/05/12 06:14:09;;;;;;;3.13;2.83;;;18.00;65.00;;;;;;5112163;28;20173;-60
2023/05/12 06:16:35;;;;;;;3.20;3.00;;;18.00;65.00;;;;;;5112607;28;20176;-60
2023/05/12 06:19:00;;;;;;;3.20;3.00;;;18.00;65.00;;;;;;5111883;28;20169;-60
2023/05/12 06:21:26;;;;;;;3.20;2.90;;;18.00;65.00;;;;;;5112151;28;20635;-60
2023/05/12 06:23:53;;;;;;;3.47;3.17;;;18.00;64.90;;;;;;5112661;28;20217;-60
2023/05/12 06:26:19;;;;;;;3.22;2.92;;;18.00;64.90;;;;;;5111703;28;20185;-60
2023/05/12 06:28:45;;;;;;;3.30;3.00;;;18.10;65.00;;;;;;5112764;28;20185;-61
2023/05/12 06:31:10;;;;;;;3.25;3.05;;;18.10;64.90;;;;;;5112603;28;20184;-61
2023/05/12 06:33:36;;;;;;;3.17;2.97;;;18.10;64.90;;;;;;5112145;28;20174;-61
2023/05/12 06:36:02;;;;;;;3.70;2.85;;;18.10;64.90;;;;;;5113201;28;20177;-61
2023/05/12 06:38:27;;;;;;;3.80;3.13;;;18.10;65.30;;;;;;5115987;28;20169;-60
2023/05/12 06:40:53;;;;;;;3.55;2.85;;;18.10;65.20;;;;;;5115762;28;20234;-61
2023/05/12 06:43:18;;;;;;;3.38;3.08;;;18.10;64.80;;;;;;5116719;28;20223;-62
2023/05/12 06:45:44;;;;;;;2.95;2.70;;;18.20;64.90;;;;;;5115670;28;20210;-62
2023/05/12 06:48:09;;;;;;;3.80;3.17;;;18.20;65.10;;;;;;5116143;28;20295;-62
2023/05/12 06:50:35;;;;;;;4.05;3.58;;;18.20;65.00;;;;;;5116173;28;20166;-60
2023/05/12 06:53:00;;;;;;;3.92;3.63;;;18.30;65.40;;;;;;5115486;28;20184;-60
2023/05/12 06:55:26;;;;;;;6.18;3.55;;;18.30;65.10;;;;;;5116042;28;20176;-60
2023/05/12 06:57:54;;;;;;;3.88;3.58;;;18.30;65.20;;;;;;5116063;28;20188;-60
2023/05/12 07:00:23;;;;;;;4.20;3.78;;;18.30;65.10;;;;;;5114994;27;20628;-60
2023/05/12 07:02:49;;;;;;;4.28;3.88;;;18.30;65.10;;;;;;5116100;28;20256;-60
2023/05/12 07:05:14;;;;;;;5.82;3.58;;;18.30;65.20;;;;;;5115829;28;20643;-60
2023/05/12 07:07:40;;;;;;;4.35;3.95;;;18.30;65.20;;;;;;5115037;28;20205;-60
2023/05/12 07:10:06;;;;;;;4.20;3.47;;;18.30;65.20;;;;;;5115244;28;20169;-60
2023/05/12 07:12:32;;;;;;;4.10;3.70;;;18.40;65.10;;;;;;5115869;28;20201;-60
2023/05/12 07:14:58;;;;;;;3.83;3.42;;;18.40;65.10;;;;;;5114074;28;20207;-59
2023/05/12 07:17:23;;;;;;;3.97;3.47;;;18.40;65.10;;;;;;5115495;28;20293;-60
2023/05/12 07:19:49;;;;;;;4.47;3.30;;;18.40;65.10;;;;;;5115602;28;20639;-59
2023/05/12 07:22:14;;;;;;;3.58;3.17;;;18.40;65.00;;;;;;5114322;28;20271;-59
2023/05/12 07:24:40;;;;;;;3.20;2.90;;;18.50;65.10;;;;;;5115570;28;20252;-59
2023/05/12 07:27:07;;;;;;;4.10;3.72;;;18.40;64.90;;;;;;5115032;28;20655;-60
2023/05/12 07:29:32;;;;;;;4.95;3.00;;;18.50;65.00;;;;;;5114876;27;20191;-60
2023/05/12 07:31:58;;;;;;;3.75;3.45;;;18.40;64.90;;;;;;5115525;28;20181;-61
2023/05/12 07:34:23;;;;;;;4.20;3.65;;;18.40;64.90;;;;;;5115126;28;20165;-61
2023/05/12 07:36:49;;;;;;;4.53;3.38;;;18.50;64.90;;;;;;5114664;28;20173;-60
2023/05/12 07:39:18;;;;;;;3.60;3.30;;;18.50;64.90;;;;;;5114915;28;20620;-60
2023/05/12 07:41:43;;;;;;;4.90;3.60;;;18.50;64.80;;;;;;5115370;28;20177;-60
2023/05/12 07:44:09;;;;;;;4.90;3.38;;;18.50;64.80;;;;;;5114459;27;20653;-60
2023/05/12 07:46:35;;;;;;;3.83;3.53;;;18.50;64.70;;;;;;5115157;28;20208;-60
2023/05/12 07:49:01;;;;;;;4.07;3.78;;;18.60;64.90;;;;;;5114321;28;20174;-60
2023/05/12 07:51:26;;;;;;;3.63;3.33;;;18.50;64.90;;;;;;5114860;28;20642;-60
2023/05/12 07:53:54;;;;;;;3.70;3.40;;;18.50;64.80;;;;;;5114890;28;20529;-60
2023/05/12 07:56:20;;;;;;;3.70;3.40;;;18.60;64.80;;;;;;5114046;28;20230;-60
2023/05/12 07:58:46;;;;;;;3.67;3.38;;;18.70;64.80;;;;;;5115066;28;20181;-60
2023/05/12 08:01:11;;;;;;;3.83;3.53;;;18.70;64.70;;;;;;5114561;28;20179;-60
2023/05/12 08:03:37;;;;;;;4.65;3.58;;;18.70;64.70;;;;;;5114264;28;20200;-61
2023/05/12 08:06:04;;;;;;;3.72;3.42;;;18.70;64.70;;;;;;5114718;28;20169;-60
2023/05/12 08:08:30;;;;;;;3.67;3.38;;;18.70;64.50;;;;;;5114598;28;20220;-60
2023/05/12 08:10:56;;;;;;;3.80;3.00;;;18.70;64.60;;;;;;5113990;27;20513;-60
2023/05/12 08:13:21;;;;;;;3.67;3.38;;;18.70;64.60;;;;;;5114381;28;20177;-60
2023/05/12 08:15:48;;;;;;;3.60;3.30;;;18.70;64.60;;;;;;5114636;28;20173;-60
2023/05/12 08:18:13;;;;;;;3.33;3.13;;;18.70;64.60;;;;;;5113562;28;20227;-59
2023/05/12 08:20:39;;;;;;;3.15;2.95;;;18.80;64.70;;;;;;5114234;28;20636;-59
2023/05/12 08:23:05;;;;;;;3.28;3.08;;;18.80;64.60;;;;;;5113932;28;20244;-60
2023/05/12 08:25:30;;;;;;;3.60;3.30;;;18.70;64.70;;;;;;5113747;28;20635;-60
2023/05/12 08:27:58;;;;;;;3.50;3.25;;;18.70;64.80;;;;;;5114178;28;20659;-60
2023/05/12 08:30:23;;;;;;;3.40;3.08;;;18.80;64.80;;;;;;5114034;28;20586;-61
2023/05/12 08:32:49;;;;;;;3.60;3.15;;;18.70;64.80;;;;;;5113546;28;20203;-61
2023/05/12 08:35:14;;;;;;;2.92;2.72;;;18.70;64.80;;;;;;5114144;28;20359;-61
2023/05/12 08:37:40;;;;;;;3.50;3.30;;;18.70;64.80;;;;;;5114058;28;20627;-60
2023/05/12 08:40:10;;;;;;;3.13;2.92;;;18.70;64.80;;;;;;5113237;28;20628;-60
2023/05/12 08:43:08;;;;;;;3.17;2.97;;;18.80;64.80;;;;;;5113184;28;20248;-60
2023/05/12 08:45:37;;;;;;;3.60;3.30;;;18.70;64.70;;;;;;5112411;28;20176;-60
2023/05/12 08:48:03;;;;;;;3.00;2.80;;;18.80;64.70;;;;;;5113712;28;20246;-60
2023/05/12 08:50:28;;;;;;;3.13;2.92;;;18.80;64.70;;;;;;5112545;28;20175;-60
2023/05/12 08:52:54;;;;;;;2.97;2.78;;;18.80;64.80;;;;;;5112039;28;20263;-60
2023/05/12 08:55:19;;;;;;;2.95;2.67;;;18.80;64.70;;;;;;5112335;28;20256;-60
2023/05/12 08:57:47;;;;;;;3.45;2.92;;;18.80;64.70;;;;;;5113635;28;20173;-60
2023/05/12 09:00:13;;;;;;;3.00;2.80;;;18.80;64.60;;;;;;5112147;28;20198;-60
2023/05/12 09:02:39;;;;;;;3.33;2.80;;;18.80;64.60;;;;;;5112429;28;20256;-60
2023/05/12 09:05:05;;;;;;;3.35;3.05;;;18.80;64.60;;;;;;5112007;28;20173;-60
2023/05/12 09:07:31;;;;;;;3.40;3.10;;;18.80;64.60;;;;;;5112870;28;20216;-60
2023/05/12 09:09:57;;;;;;;2.83;2.63;;;18.80;64.60;;;;;;5113716;28;20169;-60
2023/05/12 09:12:23;;;;;;;3.10;2.90;;;18.90;64.60;;;;;;5113331;28;20288;-60
2023/05/12 09:14:53;;;;;;;2.95;2.75;;;18.90;64.60;;;;;;5112640;28;20185;-60
2023/05/12 09:17:19;;;;;;;3.13;2.92;;;18.90;64.60;;;;;;5111974;28;20590;-59
2023/05/12 09:19:44;;;;;;;2.90;2.70;;;18.90;64.70;;;;;;5112428;28;20164;-60
2023/05/12 09:22:13;;;;;;;2.63;2.42;;;18.90;64.60;;;;;;5112435;28;20180;-59
2023/05/12 09:24:39;;;;;;;2.92;2.70;;;18.90;64.60;;;;;;5113266;28;20185;-60
2023/05/12 09:27:05;;;;;;;3.03;2.83;;;18.90;64.60;;;;;;5113023;28;20246;-60
2023/05/12 09:29:32;;;;;;;3.20;3.00;;;18.90;64.60;;;;;;5112684;28;20226;-62
2023/05/12 09:31:58;;;;;;;2.95;2.65;;;18.90;64.60;;;;;;5113132;28;20184;-62
2023/05/12 09:34:35;;;;;;;3.17;2.90;;;18.90;64.60;;;;;;5112494;28;20179;-61
2023/05/12 09:37:03;;;;;;;2.72;2.53;;;19.00;64.60;;;;;;5113573;28;20207;-61
2023/05/12 09:39:29;;;;;;;2.60;2.30;;;19.00;65.30;;;;;;5113093;28;20200;-61
2023/05/12 09:41:54;;;;;;;2.92;2.63;;;19.00;64.40;;;;;;5112749;28;20615;-61
2023/05/12 09:44:20;;;;;;;3.08;2.60;;;19.00;64.40;;;;;;5112920;28;20176;-60
2023/05/12 09:46:46;;;;;;;3.10;2.90;;;19.00;64.40;;;;;;5113384;28;20208;-61
2023/05/12 09:49:12;;;;;;;2.90;2.70;;;19.00;64.30;;;;;;5112332;28;20188;-61
2023/05/12 09:51:39;;;;;;;2.78;2.58;;;19.00;64.40;;;;;;5113352;28;20173;-61
2023/05/12 09:54:05;;;;;;;3.00;2.80;;;19.00;64.50;;;;;;5113135;28;20177;-61
2023/05/12 09:56:31;;;;;;;3.08;2.80;;;19.00;64.50;;;;;;5112273;28;20533;-61
2023/05/12 09:58:56;;;;;;;2.50;2.30;;;19.00;64.60;;;;;;5113030;28;20169;-61
2023/05/12 10:01:22;;;;;;;2.30;2.20;;;19.00;64.40;;;;;;5112712;28;20219;-60
2023/05/12 10:03:51;;;;;;;3.05;2.80;;;18.90;64.50;;;;;;5112463;28;20250;-61
2023/05/12 10:06:33;;;;;;;2.60;2.40;;;19.00;64.60;;;;;;5112977;28;20177;-62
2023/05/12 10:09:09;;;;;;;2.83;2.53;;;19.00;64.70;;;;;;5111721;28;20199;-61
2023/05/12 10:11:34;;;;;;;2.65;2.45;;;19.00;64.70;;;;;;5112560;28;20165;-60
2023/05/12 10:14:00;;;;;;;2.92;2.70;;;19.00;64.70;;;;;;5116856;28;20173;-61
2023/05/12 10:16:27;;;;;;;2.83;2.63;;;19.00;64.70;;;;;;5115619;28;20169;-61
2023/05/12 10:18:52;;;;;;;2.60;2.40;;;19.00;64.70;;;;;;5116241;28;20263;-61
2023/05/12 10:21:18;;;;;;;2.60;2.40;;;19.00;64.70;;;;;;5098416;28;20283;-60
2023/05/12 10:23:43;;;;;;;2.33;2.20;;;19.00;64.60;;;;;;5116075;28;20311;-61
2023/05/12 10:26:10;;;;;;;2.75;2.55;;;19.00;64.50;;;;;;5116253;28;20540;-61
2023/05/12 10:28:36;;;;;;;2.33;2.20;;;19.10;64.50;;;;;;5116755;28;20214;-61
2023/05/12 10:31:01;;;;;;;2.78;2.58;;;19.10;64.50;;;;;;5116105;28;20173;-61
2023/05/12 10:33:27;;;;;;;3.20;2.50;;;19.00;64.50;;;;;;5115603;28;20173;-61
2023/05/12 10:35:52;;;;;;;4.38;2.42;;;19.10;65.00;;;;;;5116356;28;20264;-61
2023/05/12 10:38:21;;;;;;;3.80;2.63;;;19.10;65.40;;;;;;5114980;28;20263;-61
2023/05/12 10:41:00;;;;;;;3.50;2.42;;;19.20;65.40;;;;;;5115698;28;20197;-61
2023/05/12 10:43:26;;;;;;;3.47;2.45;;;19.20;65.40;;;;;;5113233;28;20177;-61
2023/05/12 10:46:11;;;;;;;3.58;2.65;;;19.20;65.50;;;;;;5115245;28;20254;-61
2023/05/12 10:48:37;;;;;;;3.05;2.75;;;19.20;65.70;;;;;;5115028;28;20292;-62
2023/05/12 10:51:07;;;;;;;2.70;2.50;;;19.20;65.50;;;;;;5115949;28;20340;-61
2023/05/12 10:53:33;;;;;;;3.00;2.53;;;19.30;65.40;;;;;;5115683;28;20199;-62
2023/05/12 10:55:58;;;;;;;2.50;2.30;;;19.30;65.10;;;;;;5116212;28;20671;-61
2023/05/12 10:58:24;;;;;;;2.70;2.50;;;19.30;65.00;;;;;;5114488;28;20651;-62
2023/05/12 11:00:50;;;;;;;3.42;2.55;;;19.40;65.00;;;;;;5115321;28;20181;-62
2023/05/12 11:03:16;;;;;;;2.60;2.40;;;19.40;65.00;;;;;;5115437;28;20176;-62
2023/05/12 11:05:43;;;;;;;2.90;2.65;;;19.40;65.00;;;;;;5115669;28;20177;-62
2023/05/12 11:08:09;;;;;;;3.90;2.33;;;19.40;65.00;;;;;;5115097;28;20212;-62
2023/05/12 11:10:34;;;;;;;3.70;2.55;;;19.40;64.90;;;;;;5115942;28;20579;-61
2023/05/12 11:13:00;;;;;;;3.47;2.60;;;19.40;64.80;;;;;;5114952;28;20237;-61
2023/05/12 11:15:27;;;;;;;4.13;2.13;;;19.50;64.80;;;;;;5115514;28;20169;-61
2023/05/12 11:17:52;;;;;;;3.40;2.33;;;19.50;64.80;;;;;;5115445;28;20262;-61
2023/05/12 11:20:24;;;;;;;3.25;2.53;;;19.50;64.80;;;;;;5114634;28;20207;-61
2023/05/12 11:22:50;;;;;;;2.45;2.03;;;19.50;64.80;;;;;;5115101;28;20235;-61
2023/05/12 11:25:16;;;;;;;2.60;2.35;;;19.40;64.90;;;;;;5115357;28;20173;-61
2023/05/12 11:27:46;;;;;;;3.47;2.30;;;19.40;64.90;;;;;;5114894;28;20209;-61
2023/05/12 11:30:12;;;;;;;3.20;2.40;;;19.40;65.00;;;;;;5115318;28;20173;-62
2023/05/12 11:32:37;;;;;;;6.22;2.35;;;19.50;65.00;;;;;;5115246;28;20188;-65
2023/05/12 11:35:14;;;;;;;4.75;2.42;;;19.50;65.00;;;;;;5114870;28;20177;-64
2023/05/12 11:37:40;;;;;;;2.22;2.03;;;19.50;65.00;;;;;;5115124;28;20661;-64
2023/05/12 11:40:12;;;;;;;4.78;2.55;;;19.50;65.00;;;;;;5114822;28;20177;-64
2023/05/12 11:42:40;;;;;;;3.08;1.98;;;19.50;65.00;;;;;;5114431;28;20173;-68
2023/05/12 11:45:06;;;;;;;6.85;2.45;;;19.50;64.70;;;;;;5113690;28;20580;-63
2023/05/12 11:47:31;;;;;;;5.53;2.50;;;19.60;65.10;;;;;;5113846;28;20232;-64
2023/05/12 11:49:57;;;;;;;4.07;2.42;;;19.50;65.00;;;;;;5114362;28;20623;-64
2023/05/12 11:52:23;;;;;;;2.70;2.22;;;19.60;65.10;;;;;;5114807;28;20180;-64
2023/05/12 11:54:58;;;;;;;4.13;2.50;;;19.60;65.10;;;;;;5115145;28;20184;-64
2023/05/12 11:57:31;;;;;;;4.30;2.30;;;19.60;65.10;;;;;;5114431;28;20259;-64
2023/05/12 12:00:07;;;;;;;3.50;2.10;;;19.60;65.10;;;;;;5114806;28;20612;-65
2023/05/12 12:02:34;;;;;;;5.55;2.53;;;19.60;65.10;;;;;;5114348;28;20255;-65
2023/05/12 12:05:00;;;;;;;2.65;2.45;;;19.60;65.40;;;;;;5114902;28;20612;-64
2023/05/12 12:07:35;;;;;;;5.32;2.33;;;19.70;65.30;;;;;;5114518;28;20247;-64
2023/05/12 12:10:11;;;;;;;4.65;2.50;;;19.80;65.10;;;;;;5113693;28;20421;-63
2023/05/12 12:12:37;;;;;;;5.10;2.55;;;19.70;65.00;;;;;;5114826;28;20181;-63
2023/05/12 12:15:03;;;;;;;5.18;2.30;;;19.80;65.10;;;;;;5114494;28;20180;-62
2023/05/12 12:17:30;;;;;;;6.68;2.60;;;19.80;65.00;;;;;;5114159;28;20181;-62
2023/05/12 12:19:56;;;;;;;7.72;2.70;;;19.80;64.90;;;;;;5114543;28;20169;-63
2023/05/12 12:22:22;;;;;;;3.95;2.35;;;19.80;64.90;;;;;;5114037;28;20193;-62
2023/05/12 12:24:47;;;;;;;5.03;2.40;;;19.80;64.90;;;;;;5113623;28;20185;-63
2023/05/12 12:27:13;;;;;;;5.50;2.63;;;19.80;64.90;;;;;;5113963;28;20724;-63
2023/05/12 12:29:38;;;;;;;3.30;2.20;;;19.70;64.80;;;;;;5114286;28;20169;-64
2023/05/12 12:32:04;;;;;;;2.47;2.17;;;19.80;64.90;;;;;;5113740;28;20218;-64
2023/05/12 12:34:31;;;;;;;4.28;2.20;;;19.80;64.80;;;;;;5113395;28;20284;-64
2023/05/12 12:36:57;;;;;;;9.35;2.58;;;19.90;64.80;;;;;;5114286;28;20181;-63
2023/05/12 12:39:22;;;;;;;4.57;2.70;;;19.80;64.70;;;;;;5112787;28;20176;-64
2023/05/12 12:41:48;;;;;;;5.20;2.30;;;19.90;64.70;;;;;;5113956;28;20180;-62
2023/05/12 12:44:13;;;;;;;3.72;2.45;;;19.90;64.80;;;;;;5113021;28;20234;-63